Time;durP1;ratioP1;P1;durP2;ratioP2;P2;SDS_P1;SDS_P2;PMS_P1;PMS_P2;Temp;Humidity;BMP_temperature;BMP_pressure;BME280_temperature;BME280_humidity;BME280_pressure;Samples;Min_cycle;Max_cycle;Signal;HPM_P1;HPM_P2
2020/12/01 00:00:46;;;;;;;;;;;;;;;0.45;98.00;101806.25;1832429;78;20287;-36
2020/12/01 00:03:14;;;;;;;;;;;;;;;0.45;97.76;101800.20;1832698;78;20185;-36
2020/12/01 00:05:41;;;;;;;;;;;;;;;0.43;97.56;101803.12;1832694;78;20407;-33
2020/12/01 00:08:09;;;;;;;;;;;;;;;0.43;97.41;101805.70;1832668;78;20144;-32
2020/12/01 00:10:39;;;;;;;;;;;;;;;0.44;97.29;101807.47;1832833;78;20243;-35
2020/12/01 00:13:07;;;;;;;;;;;;;;;0.45;97.18;101806.66;1832877;78;20152;-35
2020/12/01 00:15:35;;;;;;;;;;;;;;;0.46;97.06;101805.84;1832778;78;20227;-32
2020/12/01 00:18:03;;;;;;;;;;;;;;;0.47;96.94;101801.12;1832816;78;20136;-35
2020/12/01 00:20:31;;;;;;;;;;;;;;;0.46;96.72;101795.52;1832816;78;20235;-35
2020/12/01 00:22:59;;;;;;;;;;;;;;;0.45;96.52;101808.83;1832791;78;20282;-35
2020/12/01 00:25:27;;;;;;;;;;;;;;;0.44;96.34;101811.34;1832562;78;20450;-35
2020/12/01 00:27:55;;;;;;;;;;;;;;;0.43;96.16;101805.70;1832506;78;20129;-34
2020/12/01 00:30:24;;;;;;;;;;;;;;;0.43;96.00;101801.83;1832430;78;20152;-35
2020/12/01 00:32:52;;;;;;;;;;;;;;;0.42;95.90;101810.38;1832482;78;20148;-35
2020/12/01 00:35:23;;;;;;;;;;;;;;;0.43;95.80;101811.73;1832816;78;20145;-37
2020/12/01 00:37:51;;;;;;;;;;;;;;;0.43;95.67;101805.70;1832932;78;20156;-36
2020/12/01 00:40:19;;;;;;;;;;;;;;;0.44;95.58;101802.30;1832792;78;20153;-35
2020/12/01 00:42:47;;;;;;;;;;;;;;;0.44;95.44;101802.30;1832511;78;20192;-36
2020/12/01 00:45:15;;;;;;;;;;;;;;;0.44;95.31;101806.17;1839120;77;20146;-35
2020/12/01 00:47:43;;;;;;;;;;;;;;;0.42;95.21;101815.12;1840557;77;20235;-34
2020/12/01 00:50:14;;;;;;;;;;;;;;;0.39;95.12;101812.44;1832740;78;20212;-35
2020/12/01 00:52:41;;;;;;;;;;;;;;;0.38;95.04;101815.42;1832769;78;20156;-36
2020/12/01 00:55:11;;;;;;;;;;;;;;;0.37;94.88;101817.93;1832802;78;20141;-34
2020/12/01 00:57:39;;;;;;;;;;;;;;;0.34;94.77;101810.93;1832658;78;20180;-34
2020/12/01 01:00:08;;;;;;;;;;;;;;;0.32;94.69;101811.30;1832612;78;20161;-33
2020/12/01 01:02:38;;;;;;;;;;;;;;;0.31;94.60;101815.09;1828472;78;20125;-36
2020/12/01 01:05:06;;;;;;;;;;;;;;;0.30;94.55;101804.30;1832754;78;20212;-34
2020/12/01 01:07:34;;;;;;;;;;;;;;;0.27;94.40;101808.02;1832815;78;20181;-36
2020/12/01 01:10:04;;;;;;;;;;;;;;;0.24;94.33;101809.20;1832677;78;20220;-36
2020/12/01 01:12:34;;;;;;;;;;;;;;;0.23;94.30;101807.44;1832772;78;20144;-34
2020/12/01 01:15:02;;;;;;;;;;;;;;;0.23;94.27;101819.03;1832661;78;20165;-35
2020/12/01 01:17:30;;;;;;;;;;;;;;;0.22;94.24;101806.55;1832851;78;20382;-34
2020/12/01 01:19:58;;;;;;;;;;;;;;;0.21;94.17;101816.79;1832500;78;20267;-34
2020/12/01 01:22:26;;;;;;;;;;;;;;;0.20;94.23;101810.75;1832846;78;20144;-37
2020/12/01 01:24:54;;;;;;;;;;;;;;;0.20;94.25;101825.34;1832883;78;20175;-37
2020/12/01 01:27:21;;;;;;;;;;;;;;;0.20;94.27;101817.60;1832801;78;20141;-35
2020/12/01 01:29:50;;;;;;;;;;;;;;;0.19;94.29;101826.18;1832504;78;20401;-34
2020/12/01 01:32:17;;;;;;;;;;;;;;;0.19;94.35;101819.73;1832478;78;20227;-36
2020/12/01 01:34:45;;;;;;;;;;;;;;;0.19;94.39;101819.33;1832426;78;20268;-37
2020/12/01 01:37:13;;;;;;;;;;;;;;;0.21;94.39;101818.08;1832679;78;20145;-33
2020/12/01 01:39:41;;;;;;;;;;;;;;;0.18;94.41;101821.43;1832725;78;20232;-35
2020/12/01 01:42:09;;;;;;;;;;;;;;;0.19;94.51;101804.27;1832468;78;20180;-34
2020/12/01 01:44:37;;;;;;;;;;;;;;;0.19;94.50;101809.42;1832500;78;20141;-36
2020/12/01 01:47:15;;;;;;;;;;;;;;;0.17;94.52;101806.77;1832430;78;20243;-35
2020/12/01 01:49:43;;;;;;;;;;;;;;;0.18;94.59;101806.36;1832423;78;20136;-35
2020/12/01 01:52:24;;;;;;;;;;;;;;;0.18;94.61;101805.95;1832404;78;20125;-36
2020/12/01 01:54:56;;;;;;;;;;;;;;;0.18;94.64;101808.94;1832727;78;20156;-37
2020/12/01 01:57:24;;;;;;;;;;;;;;;0.19;94.70;101812.00;1832706;78;20184;-36
2020/12/01 01:59:53;;;;;;;;;;;;;;;0.19;94.68;101810.71;1803482;78;20124;-35
2020/12/01 02:02:20;;;;;;;;;;;;;;;0.19;94.70;101814.58;1832431;78;20152;-35
2020/12/01 02:04:48;;;;;;;;;;;;;;;0.19;94.71;101815.87;1832558;78;20145;-37
2020/12/01 02:07:16;;;;;;;;;;;;;;;0.19;94.72;101813.28;1832550;78;20129;-35
2020/12/01 02:09:47;;;;;;;;;;;;;;;0.19;94.75;101810.71;1832705;78;20172;-36
2020/12/01 02:12:15;;;;;;;;;;;;;;;0.18;94.79;101812.41;1832272;78;20125;-35
2020/12/01 02:14:49;;;;;;;;;;;;;;;0.19;94.80;101801.28;1832666;78;20462;-34
2020/12/01 02:17:29;;;;;;;;;;;;;;;0.19;94.76;101810.71;1832318;78;20129;-36
2020/12/01 02:19:58;;;;;;;;;;;;;;;0.19;94.79;101806.44;1832778;78;20259;-36
2020/12/01 02:22:29;;;;;;;;;;;;;;;0.19;94.79;101806.44;1832515;78;20395;-33
2020/12/01 02:26:53;;;;;;;;;;;;;;;0.23;94.84;101807.03;1909415;74;20450;-33
2020/12/01 02:29:22;;;;;;;;;;;;;;;0.20;94.78;101824.05;1888883;75;20188;-37
2020/12/01 02:31:50;;;;;;;;;;;;;;;0.19;94.76;101815.87;1903157;75;20462;-35
2020/12/01 02:34:21;;;;;;;;;;;;;;;0.18;94.74;101826.59;1902958;75;20179;-36
2020/12/01 02:36:48;;;;;;;;;;;;;;;0.17;94.73;101824.81;1903323;75;20179;-35
2020/12/01 02:39:18;;;;;;;;;;;;;;;0.19;94.76;101825.78;1903132;75;20140;-35
2020/12/01 02:41:46;;;;;;;;;;;;;;;0.18;94.73;101821.83;1903032;75;20168;-35
2020/12/01 02:44:13;;;;;;;;;;;;;;;0.17;94.74;101822.23;1903120;75;20278;-35
2020/12/01 02:46:42;;;;;;;;;;;;;;;0.15;94.70;101813.55;1902975;75;20469;-34
2020/12/01 02:49:10;;;;;;;;;;;;;;;0.16;94.72;101811.45;1903068;75;20120;-35
2020/12/01 02:51:37;;;;;;;;;;;;;;;0.16;94.70;101819.18;1903389;75;20191;-35
2020/12/01 02:54:07;;;;;;;;;;;;;;;0.16;94.73;101820.47;1903171;75;20386;-39
2020/12/01 02:56:35;;;;;;;;;;;;;;;0.18;94.77;101824.00;1903076;75;20228;-34
2020/12/01 02:59:03;;;;;;;;;;;;;;;0.18;94.74;101826.98;1903009;75;20120;-35
2020/12/01 03:01:31;;;;;;;;;;;;;;;0.19;94.76;101824.89;1902953;75;20144;-35
2020/12/01 03:03:58;;;;;;;;;;;;;;;0.19;94.68;101819.33;1902911;75;20168;-35
2020/12/01 03:06:26;;;;;;;;;;;;;;;0.19;94.65;101828.76;1903015;75;20128;-35
2020/12/01 03:08:54;;;;;;;;;;;;;;;0.20;94.62;101830.09;1903010;75;20187;-33
2020/12/01 03:11:21;;;;;;;;;;;;;;;0.21;94.54;101832.27;1903070;75;20266;-35
2020/12/01 03:13:49;;;;;;;;;;;;;;;0.21;94.41;101835.73;1903030;75;20179;-33
2020/12/01 03:16:16;;;;;;;;;;;;;;;0.23;94.33;101835.80;1902956;75;20124;-34
2020/12/01 03:18:45;;;;;;;;;;;;;;;0.24;94.25;101831.13;1881957;75;20383;-35
2020/12/01 03:21:14;;;;;;;;;;;;;;;0.24;94.09;101838.45;1867885;77;20225;-33
2020/12/01 03:23:43;;;;;;;;;;;;;;;0.23;94.00;101836.69;1867943;77;20300;-41
2020/12/01 03:26:12;;;;;;;;;;;;;;;0.23;93.83;101840.55;1867943;77;20158;-35
2020/12/01 03:28:40;;;;;;;;;;;;;;;0.21;93.73;101842.58;1868076;77;20182;-35
2020/12/01 03:31:09;;;;;;;;;;;;;;;0.19;93.66;101843.83;1867956;77;20539;-35
2020/12/01 03:33:36;;;;;;;;;;;;;;;0.18;93.62;101845.92;1867987;77;20166;-35
2020/12/01 03:36:04;;;;;;;;;;;;;;;0.18;93.54;101847.62;1867965;77;20234;-34
2020/12/01 03:38:32;;;;;;;;;;;;;;;0.18;93.51;101848.50;1867647;77;20185;-35
2020/12/01 03:40:59;;;;;;;;;;;;;;;0.18;93.44;101852.77;1867569;77;20133;-34
2020/12/01 03:43:27;;;;;;;;;;;;;;;0.17;93.36;101848.43;1867314;77;20276;-36
2020/12/01 03:45:56;;;;;;;;;;;;;;;0.18;93.33;101854.95;1867374;77;20411;-36
2020/12/01 03:48:24;;;;;;;;;;;;;;;0.18;93.30;101854.95;1867341;77;20174;-38
2020/12/01 03:50:52;;;;;;;;;;;;;;;0.17;93.25;101847.14;1867513;77;20154;-35
2020/12/01 03:53:20;;;;;;;;;;;;;;;0.18;93.24;101854.06;1867248;77;20150;-36
2020/12/01 03:55:50;;;;;;;;;;;;;;;0.15;93.16;101853.51;1867431;77;20484;-34
2020/12/01 03:58:18;;;;;;;;;;;;;;;0.15;93.14;101853.51;1867247;77;20150;-35
2020/12/01 04:00:45;;;;;;;;;;;;;;;0.16;93.11;101850.13;1867158;77;20138;-35
2020/12/01 04:03:13;;;;;;;;;;;;;;;0.16;93.06;101849.23;1867170;77;20174;-35
2020/12/01 04:05:41;;;;;;;;;;;;;;;0.17;93.01;101840.69;1866962;77;20189;-36
2020/12/01 04:08:09;;;;;;;;;;;;;;;0.18;92.98;101842.46;1866958;77;20158;-36
2020/12/01 04:10:37;;;;;;;;;;;;;;;0.17;92.88;101844.16;1867332;77;20416;-36
2020/12/01 04:13:06;;;;;;;;;;;;;;;0.17;92.75;101836.42;1867432;75;20261;-35
2020/12/01 04:15:34;;;;;;;;;;;;;;;0.17;92.75;101844.56;1867431;77;20166;-34
2020/12/01 04:18:01;;;;;;;;;;;;;;;0.17;92.71;101842.86;1868175;75;20241;-35
2020/12/01 04:20:29;;;;;;;;;;;;;;;0.18;92.71;101848.91;1867229;77;20222;-34
2020/12/01 04:22:57;;;;;;;;;;;;;;;0.14;92.69;101851.74;1867586;77;20131;-34
2020/12/01 04:25:25;;;;;;;;;;;;;;;0.11;92.69;101853.32;1867482;77;20385;-35
2020/12/01 04:27:56;;;;;;;;;;;;;;;0.11;92.66;101842.60;1867081;77;20170;-38
2020/12/01 04:30:26;;;;;;;;;;;;;;;0.11;92.53;101861.94;1832382;78;20144;-35
2020/12/01 04:32:55;;;;;;;;;;;;;;;0.12;92.37;101856.38;1832605;78;20223;-42
2020/12/01 04:35:24;;;;;;;;;;;;;;;0.10;92.36;101860.58;1832369;78;20125;-38
2020/12/01 04:37:53;;;;;;;;;;;;;;;0.06;92.39;101862.55;1832831;78;20153;-36
2020/12/01 04:40:22;;;;;;;;;;;;;;;0.00;92.54;101863.17;1832443;78;20137;-34
2020/12/01 04:42:53;;;;;;;;;;;;;;;-0.04;92.64;101870.27;1832487;78;20418;-36
2020/12/01 04:45:21;;;;;;;;;;;;;;;-0.07;92.73;101879.17;1831926;78;20129;-34
2020/12/01 04:47:55;;;;;;;;;;;;;;;-0.09;92.78;101879.50;1832710;78;20267;-36
2020/12/01 04:50:32;;;;;;;;;;;;;;;-0.10;92.83;101887.63;1832408;78;20188;-33
2020/12/01 04:53:34;;;;;;;;;;;;;;;-0.11;92.84;101880.71;1828891;78;20228;-35
2020/12/01 04:56:19;;;;;;;;;;;;;;;-0.10;92.82;101888.04;1832531;77;20172;-36
2020/12/01 04:59:02;;;;;;;;;;;;;;;-0.12;92.74;101893.12;1832194;78;20275;-34
2020/12/01 05:01:46;;;;;;;;;;;;;;;-0.13;92.68;101884.05;1832326;78;20156;-36
2020/12/01 05:04:32;;;;;;;;;;;;;;;-0.13;92.61;101887.92;1832499;78;20188;-36
2020/12/01 05:10:24;;;;;;;;;;;;;;;-0.06;92.46;101882.20;1901120;74;20145;-39
2020/12/01 05:12:57;;;;;;;;;;;;;;;-0.11;92.42;101883.29;1833583;77;20137;-31
2020/12/01 05:15:32;;;;;;;;;;;;;;;-0.12;92.38;101893.52;1873194;75;20164;-35
2020/12/01 05:18:24;;;;;;;;;;;;;;;-0.14;92.40;101897.34;1902716;75;20120;-35
2020/12/01 05:20:54;;;;;;;;;;;;;;;-0.14;92.46;101901.61;1870833;75;20132;-36
2020/12/01 05:23:28;;;;;;;;;;;;;;;-0.15;92.47;101894.69;1867396;75;20162;-37
2020/12/01 05:26:06;;;;;;;;;;;;;;;-0.17;92.53;101907.90;1867860;75;20146;-36
2020/12/01 05:28:46;;;;;;;;;;;;;;;-0.18;92.60;101911.28;1867836;75;20396;-37
2020/12/01 05:31:21;;;;;;;;;;;;;;;-0.18;92.71;101903.55;1867734;77;20176;-37
2020/12/01 05:34:04;;;;;;;;;;;;;;;-0.19;92.78;101896.62;1880663;75;20150;-36
2020/12/01 05:36:34;;;;;;;;;;;;;;;-0.19;92.87;101905.25;1870455;75;20369;-36
2020/12/01 05:39:04;;;;;;;;;;;;;;;-0.19;92.96;101895.34;1876431;75;20140;-36
2020/12/01 05:41:36;;;;;;;;;;;;;;;-0.24;93.04;101897.72;1874599;75;20200;-38
2020/12/01 05:44:08;;;;;;;;;;;;;;;-0.28;93.17;101890.67;1867036;77;20164;-36
2020/12/01 05:46:39;;;;;;;;;;;;;;;-0.33;93.29;101887.00;1871015;75;20142;-36
2020/12/01 05:49:37;;;;;;;;;;;;;;;-0.36;93.46;101893.29;1875385;75;20263;-36
2020/12/01 05:52:11;;;;;;;;;;;;;;;-0.39;93.59;101900.01;1872551;75;20267;-38
2020/12/01 05:54:41;;;;;;;;;;;;;;;-0.43;93.79;101903.71;1870290;75;20212;-36
2020/12/01 05:57:23;;;;;;;;;;;;;;;-0.45;94.00;101900.17;1871744;75;20181;-38
2020/12/01 05:59:56;;;;;;;;;;;;;;;-0.44;94.16;101903.23;1808039;78;20135;-37
2020/12/01 06:02:27;;;;;;;;;;;;;;;-0.43;94.31;101902.83;1817267;78;20193;-38
2020/12/01 06:04:55;;;;;;;;;;;;;;;-0.46;94.39;101897.55;1825107;78;20236;-36
2020/12/01 06:07:25;;;;;;;;;;;;;;;-0.48;94.49;101909.47;1815535;78;20230;-38
2020/12/01 06:09:56;;;;;;;;;;;;;;;-0.48;94.64;101903.91;1793456;79;20139;-38
2020/12/01 06:12:34;;;;;;;;;;;;;;;-0.47;94.73;101908.26;1810010;77;20234;-38
2020/12/01 06:15:06;;;;;;;;;;;;;;;-0.48;94.82;101905.60;1809602;77;20184;-39
2020/12/01 06:17:58;;;;;;;;;;;;;;;-0.48;94.94;101909.06;1841254;77;20162;-37
2020/12/01 06:20:53;;;;;;;;;;;;;;;-0.49;95.05;101906.00;1833237;77;20217;-39
2020/12/01 06:27:17;;;;;;;;;;;;;;;-0.43;95.32;101906.29;1898640;74;20463;-37
2020/12/01 06:29:53;;;;;;;;;;;;;;;-0.47;95.38;101916.39;1846383;76;20187;-37
2020/12/01 06:32:57;;;;;;;;;;;;;;;-0.49;95.44;101918.00;1854567;75;20210;-38
2020/12/01 06:35:50;;;;;;;;;;;;;;;-0.51;95.54;101924.36;1882205;75;20414;-40
2020/12/01 06:38:55;;;;;;;;;;;;;;;-0.51;95.64;101920.49;1834389;77;20407;-36
2020/12/01 06:41:24;;;;;;;;;;;;;;;-0.50;95.70;101919.69;1852307;77;20201;-38
2020/12/01 06:43:54;;;;;;;;;;;;;;;-0.52;95.80;101928.14;1836951;77;20174;-40
2020/12/01 06:46:40;;;;;;;;;;;;;;;-0.52;95.88;101925.16;1809716;78;20188;-37
2020/12/01 06:49:11;;;;;;;;;;;;;;;-0.51;95.97;101924.36;1857746;77;20198;-38
2020/12/01 06:51:46;;;;;;;;;;;;;;;-0.51;95.97;101920.89;1775104;80;20206;-39
2020/12/01 06:54:16;;;;;;;;;;;;;;;-0.52;96.00;101920.01;1838543;77;20284;-36
2020/12/01 06:57:03;;;;;;;;;;;;;;;-0.54;96.00;101917.79;1822454;77;20480;-37
2020/12/01 06:59:32;;;;;;;;;;;;;;;-0.52;96.01;101921.30;1813735;78;20159;-36
2020/12/01 07:02:09;;;;;;;;;;;;;;;-0.56;95.99;101920.69;1805635;78;20176;-33
2020/12/01 07:04:37;;;;;;;;;;;;;;;-0.54;96.01;101926.80;1826886;78;20215;-37
2020/12/01 07:07:10;;;;;;;;;;;;;;;-0.52;96.03;101922.98;1808492;78;20198;-36
2020/12/01 07:09:45;;;;;;;;;;;;;;;-0.54;96.00;101917.79;1817242;78;20210;-38
2020/12/01 07:12:52;;;;;;;;;;;;;;;-0.53;96.08;101916.98;1802490;78;20282;-40
2020/12/01 07:15:29;;;;;;;;;;;;;;;-0.53;96.07;101916.98;1822288;78;20275;-38
2020/12/01 07:18:20;;;;;;;;;;;;;;;-0.54;96.08;101930.67;1821642;78;20659;-35
2020/12/01 07:21:17;;;;;;;;;;;;;;;-0.55;96.03;101933.16;1809834;78;20481;-38
2020/12/01 07:23:49;;;;;;;;;;;;;;;-0.55;96.06;101933.16;1805235;78;20156;-39
2020/12/01 07:26:26;;;;;;;;;;;;;;;-0.52;96.08;101930.31;1802419;78;20129;-39
2020/12/01 07:29:16;;;;;;;;;;;;;;;-0.47;96.07;101934.02;1831511;77;20202;-38
2020/12/01 07:31:43;;;;;;;;;;;;;;;-0.43;95.95;101942.36;1834348;77;20227;-37
2020/12/01 07:34:27;;;;;;;;;;;;;;;-0.42;95.83;101938.97;1837217;77;20176;-36
2020/12/01 07:36:58;;;;;;;;;;;;;;;-0.39;95.75;101934.34;1814749;78;20127;-40
2020/12/01 07:39:28;;;;;;;;;;;;;;;-0.33;95.78;101943.69;1822129;77;20170;-38
2020/12/01 07:42:01;;;;;;;;;;;;;;;-0.28;95.68;101937.05;1812587;78;20309;-39
2020/12/01 07:44:39;;;;;;;;;;;;;;;-0.25;95.60;101932.02;1816793;78;20212;-36
2020/12/01 07:47:18;;;;;;;;;;;;;;;-0.23;95.42;101931.70;1842593;77;20145;-37
2020/12/01 07:50:20;;;;;;;;;;;;;;;-0.20;95.43;101935.72;1792804;78;20219;-36
2020/12/01 07:52:47;;;;;;;;;;;;;;;-0.13;95.38;101929.16;1833006;77;20145;-36
2020/12/01 07:55:18;;;;;;;;;;;;;;;-0.13;95.18;101926.14;1846504;77;20204;-37
2020/12/01 07:58:20;;;;;;;;;;;;;;;-0.17;94.85;101929.80;1832456;77;20288;-38
2020/12/01 08:00:54;;;;;;;;;;;;;;;-0.24;94.63;101925.17;1816096;77;20344;-37
2020/12/01 08:03:28;;;;;;;;;;;;;;;-0.28;94.50;101925.86;1797057;78;20503;-37
2020/12/01 08:06:02;;;;;;;;;;;;;;;-0.30;94.45;101921.03;1780440;79;20220;-39
2020/12/01 08:08:35;;;;;;;;;;;;;;;-0.28;94.37;101919.41;1818413;78;20204;-39
2020/12/01 08:11:06;;;;;;;;;;;;;;;-0.25;94.31;101924.69;1811297;78;20180;-37
2020/12/01 08:13:36;;;;;;;;;;;;;;;-0.21;94.28;101918.89;1804788;78;20190;-39
2020/12/01 08:16:25;;;;;;;;;;;;;;;-0.21;93.90;101919.77;1834097;77;20698;-38
2020/12/01 08:18:53;;;;;;;;;;;;;;;-0.21;93.69;101922.76;1847351;77;20207;-37
2020/12/01 08:21:26;;;;;;;;;;;;;;;-0.25;93.47;101918.25;1815764;78;20248;-37
2020/12/01 08:23:56;;;;;;;;;;;;;;;-0.31;93.27;101913.70;1806990;78;20156;-38
2020/12/01 08:26:26;;;;;;;;;;;;;;;-0.34;93.13;101908.42;1807572;78;20186;-38
2020/12/01 08:29:04;;;;;;;;;;;;;;;-0.33;93.15;101919.21;1807816;78;20312;-44
2020/12/01 08:32:11;;;;;;;;;;;;;;;-0.29;93.08;101921.51;1806593;78;20210;-39
2020/12/01 08:34:45;;;;;;;;;;;;;;;-0.25;92.92;101913.09;1804158;78;20155;-38
2020/12/01 08:37:19;;;;;;;;;;;;;;;-0.24;92.68;101900.30;1807398;78;20205;-37
2020/12/01 08:40:18;;;;;;;;;;;;;;;-0.30;92.20;101906.45;1806021;78;20237;-45
2020/12/01 08:42:56;;;;;;;;;;;;;;;-0.35;92.01;101907.05;1810610;78;20146;-38
2020/12/01 08:45:54;;;;;;;;;;;;;;;-0.33;91.88;101901.58;1779963;78;20187;-39
2020/12/01 08:48:30;;;;;;;;;;;;;;;-0.33;91.64;101898.60;1774631;78;20212;-38
2020/12/01 08:51:11;;;;;;;;;;;;;;;-0.30;91.43;101897.84;1769612;78;20135;-40
2020/12/01 08:53:44;;;;;;;;;;;;;;;-0.31;91.20;101895.66;1800740;78;20129;-42
2020/12/01 08:56:23;;;;;;;;;;;;;;;-0.32;90.87;101890.44;1780408;80;20187;-43
2020/12/01 08:58:51;;;;;;;;;;;;;;;-0.39;90.48;101889.70;1769952;78;20281;-42
2020/12/01 09:01:20;;;;;;;;;;;;;;;-0.48;90.22;101882.02;1790569;78;20182;-42
2020/12/01 09:03:57;;;;;;;;;;;;;;;-0.51;90.04;101889.59;1748120;78;20215;-42
2020/12/01 09:06:30;;;;;;;;;;;;;;;-0.56;89.95;101882.05;1813185;78;20196;-42
2020/12/01 09:09:04;;;;;;;;;;;;;;;-0.53;89.96;101883.50;1805825;78;20214;-42
2020/12/01 09:21:56;;;;;;;;;;;;;;;-0.47;88.61;101875.17;1789135;78;20196;-40
2020/12/01 09:24:25;;;;;;;;;;;;;;;-0.44;88.14;101878.76;1801374;78;20206;-37
2020/12/01 09:27:08;;;;;;;;;;;;;;;-0.37;87.75;101879.04;1811229;78;20207;-38
2020/12/01 09:29:36;;;;;;;;;;;;;;;-0.34;87.52;101877.51;1805059;78;20408;-40
2020/12/01 09:32:06;;;;;;;;;;;;;;;-0.34;86.99;101860.77;1800926;80;20288;-39
2020/12/01 09:34:35;;;;;;;;;;;;;;;-0.43;86.74;101877.95;1810562;78;20155;-44
2020/12/01 09:37:03;;;;;;;;;;;;;;;-0.47;86.56;101872.59;1808009;78;20316;-41
2020/12/01 09:39:34;;;;;;;;;;;;;;;-0.46;86.29;101864.92;1808240;78;20137;-40
2020/12/01 09:42:27;;;;;;;;;;;;;;;-0.43;86.09;101868.94;1810014;78;20233;-39
2020/12/01 09:47:20;;;;;;;;;;;;;;;-0.35;85.65;101869.70;1742315;78;20155;-39
2020/12/01 09:49:43;;;;;;;;;;;;;;;-0.29;85.27;101863.13;1801860;78;20165;-38
2020/12/01 09:52:19;;;;;;;;;;;;;;;-0.31;84.54;101867.73;1816699;78;20137;-40
2020/12/01 09:54:54;;;;;;;;;;;;;;;-0.39;84.23;101863.51;1817226;78;20201;-42
2020/12/01 09:57:38;;;;;;;;;;;;;;;-0.42;84.15;101864.67;1802856;78;20168;-42
2020/12/01 10:00:21;;;;;;;;;;;;;;;-0.36;84.19;101872.68;1806910;78;20264;-39
2020/12/01 10:19:50;;;;;;;;;;;;;;;-0.32;81.82;101858.23;1805464;78;20143;-39
2020/12/01 10:32:33;;;;;;;;;;;;;;;-0.27;81.47;101833.17;1869388;75;20488;-43
2020/12/01 10:37:39;;;;;;;;;;;;;;;0.08;80.78;101814.50;1866279;75;20194;-39
2020/12/01 10:40:07;;;;;;;;;;;;;;;0.19;80.56;101821.91;1873893;75;20214;-37
2020/12/01 10:42:35;;;;;;;;;;;;;;;0.34;80.18;101823.83;1874303;75;20166;-39
2020/12/01 10:45:03;;;;;;;;;;;;;;;0.46;79.76;101824.75;1878312;75;20255;-41
2020/12/01 10:47:31;;;;;;;;;;;;;;;0.56;79.00;101825.63;1868630;75;20280;-41
2020/12/01 10:49:59;;;;;;;;;;;;;;;0.56;78.13;101822.16;1868966;75;20394;-44
2020/12/01 10:52:26;;;;;;;;;;;;;;;0.53;77.65;101811.29;1869978;75;20660;-42
2020/12/01 10:54:54;;;;;;;;;;;;;;;0.57;77.24;101822.23;1870735;75;20491;-41
2020/12/01 10:57:23;;;;;;;;;;;;;;;0.65;76.93;101819.56;1877266;75;20441;-41
2020/12/01 10:59:54;;;;;;;;;;;;;;;0.74;76.50;101817.75;1874453;75;20174;-42
2020/12/01 11:02:22;;;;;;;;;;;;;;;0.77;76.17;101822.64;1869475;75;20181;-40
2020/12/01 11:04:50;;;;;;;;;;;;;;;0.83;76.00;101824.59;1872993;75;20218;-41
2020/12/01 11:07:18;;;;;;;;;;;;;;;0.86;75.74;101817.36;1872598;75;20296;-45
2020/12/01 11:09:47;;;;;;;;;;;;;;;0.86;75.72;101822.11;1885179;75;20226;-42
2020/12/01 11:12:14;;;;;;;;;;;;;;;0.92;75.77;101822.36;1868701;75;20571;-49
2020/12/01 11:14:42;;;;;;;;;;;;;;;0.97;75.48;101822.56;1866993;75;20225;-43
2020/12/01 11:17:15;;;;;;;;;;;;;;;1.02;74.94;101813.30;1868083;75;20234;-42
2020/12/01 11:19:43;;;;;;;;;;;;;;;1.04;74.36;101815.12;1836058;75;20222;-42
2020/12/01 11:22:13;;;;;;;;;;;;;;;1.03;73.78;101834.02;1869563;75;20185;-42
2020/12/01 11:24:41;;;;;;;;;;;;;;;1.03;73.56;101837.01;1870558;75;20210;-42
2020/12/01 11:27:10;;;;;;;;;;;;;;;0.95;72.84;101841.86;1874306;75;20190;-46
2020/12/01 11:29:38;;;;;;;;;;;;;;;0.80;72.68;101843.81;1867382;75;20214;-41
2020/12/01 11:32:05;;;;;;;;;;;;;;;0.76;72.80;101844.52;1841876;75;20393;-42
2020/12/01 11:34:33;;;;;;;;;;;;;;;0.72;72.75;101846.51;1867412;75;20190;-42
2020/12/01 11:37:02;;;;;;;;;;;;;;;0.70;72.88;101845.15;1870359;75;20445;-42
2020/12/01 11:39:32;;;;;;;;;;;;;;;0.69;73.06;101842.49;1870615;75;20555;-42
2020/12/01 11:42:02;;;;;;;;;;;;;;;0.70;73.26;101833.94;1808375;77;20205;-42
2020/12/01 11:44:30;;;;;;;;;;;;;;;0.68;73.39;101835.56;1805213;78;20409;-42
2020/12/01 11:46:58;;;;;;;;;;;;;;;0.73;73.80;101836.63;1811403;78;20195;-43
2020/12/01 11:49:27;;;;;;;;;;;;;;;0.83;73.79;101828.46;1785986;77;20649;-42
2020/12/01 11:51:58;;;;;;;;;;;;;;;0.89;73.37;101839.44;1825504;77;20539;-42
2020/12/01 11:54:26;;;;;;;;;;;;;;;0.81;73.19;101835.25;1837759;77;20125;-41
2020/12/01 11:56:54;;;;;;;;;;;;;;;0.72;73.25;101816.39;1837447;77;20153;-42
2020/12/01 11:59:22;;;;;;;;;;;;;;;0.62;73.41;101841.77;1832602;77;20159;-41
2020/12/01 12:01:50;;;;;;;;;;;;;;;0.51;73.43;101835.28;1833463;77;20172;-41
2020/12/01 12:04:18;;;;;;;;;;;;;;;0.39;73.48;101842.95;1832481;77;20285;-42
2020/12/01 12:06:47;;;;;;;;;;;;;;;0.30;73.66;101843.87;1836745;77;20192;-43
2020/12/01 12:09:17;;;;;;;;;;;;;;;0.26;73.83;101849.69;1837494;77;20615;-42
2020/12/01 12:11:47;;;;;;;;;;;;;;;0.22;74.01;101851.67;1835891;77;20241;-42
2020/12/01 12:14:16;;;;;;;;;;;;;;;0.20;74.08;101842.98;1821310;78;20211;-42
2020/12/01 12:16:44;;;;;;;;;;;;;;;0.17;74.25;101844.56;1836132;77;20436;-43
2020/12/01 12:19:15;;;;;;;;;;;;;;;0.14;74.50;101842.72;1832085;77;20293;-44
2020/12/01 12:21:48;;;;;;;;;;;;;;;0.11;74.73;101840.02;1833858;77;20231;-42
2020/12/01 12:24:19;;;;;;;;;;;;;;;0.07;74.81;101838.52;1803528;78;20204;-40
2020/12/01 12:26:51;;;;;;;;;;;;;;;0.04;74.67;101837.11;1735378;78;20204;-40
2020/12/01 12:29:19;;;;;;;;;;;;;;;-0.02;74.42;101840.30;1805720;78;20180;-43
2020/12/01 12:31:47;;;;;;;;;;;;;;;-0.08;74.36;101841.31;1807204;78;20208;-42
2020/12/01 12:34:15;;;;;;;;;;;;;;;-0.13;74.57;101847.97;1819163;77;20229;-40
2020/12/01 12:36:43;;;;;;;;;;;;;;;-0.14;74.80;101851.36;1833695;77;20130;-42
2020/12/01 12:39:12;;;;;;;;;;;;;;;-0.15;74.94;101852.16;1831178;77;20169;-39
2020/12/01 12:41:40;;;;;;;;;;;;;;;-0.18;74.83;101850.32;1829210;77;20208;-42
2020/12/01 12:44:09;;;;;;;;;;;;;;;-0.20;74.90;101850.68;1830044;77;20216;-39
2020/12/01 12:46:38;;;;;;;;;;;;;;;-0.23;74.83;101846.66;1830411;77;20146;-39
2020/12/01 12:49:06;;;;;;;;;;;;;;;-0.27;74.68;101849.92;1830465;77;20218;-38
2020/12/01 12:51:34;;;;;;;;;;;;;;;-0.32;74.59;101847.52;1811211;77;20186;-39
2020/12/01 12:54:03;;;;;;;;;;;;;;;-0.35;74.56;101847.80;1834295;77;20465;-40
2020/12/01 12:56:31;;;;;;;;;;;;;;;-0.40;74.53;101841.16;1810267;78;20325;-39
2020/12/01 12:58:59;;;;;;;;;;;;;;;-0.43;74.64;101848.33;1835440;77;20184;-39
2020/12/01 13:01:28;;;;;;;;;;;;;;;-0.47;74.70;101846.44;1835522;77;20482;-39
2020/12/01 13:03:55;;;;;;;;;;;;;;;-0.48;74.72;101843.78;1828970;77;20281;-39
2020/12/01 13:06:23;;;;;;;;;;;;;;;-0.52;74.78;101848.30;1829566;77;20180;-40
2020/12/01 13:08:51;;;;;;;;;;;;;;;-0.56;74.79;101853.73;1831213;77;20304;-44
2020/12/01 13:11:18;;;;;;;;;;;;;;;-0.60;74.84;101859.55;1829101;77;20203;-39
2020/12/01 13:13:46;;;;;;;;;;;;;;;-0.62;74.92;101871.47;1829279;77;20302;-40
2020/12/01 13:16:15;;;;;;;;;;;;;;;-0.64;75.03;101882.50;1833670;77;20196;-39
2020/12/01 13:18:43;;;;;;;;;;;;;;;-0.69;75.22;101881.00;1833915;77;20195;-39
2020/12/01 13:21:11;;;;;;;;;;;;;;;-0.73;75.37;101879.50;1832669;77;20129;-39
2020/12/01 13:23:40;;;;;;;;;;;;;;;-0.77;75.42;101882.72;1835231;77;20255;-40
2020/12/01 13:26:09;;;;;;;;;;;;;;;-0.81;75.47;101884.28;1835473;77;20268;-38
2020/12/01 13:28:54;;;;;;;;;;;;;;;-0.84;75.50;101890.55;1757541;77;20283;-39
2020/12/01 13:31:27;;;;;;;;;;;;;;;-0.88;75.56;101883.10;1787558;77;20252;-40
2020/12/01 13:33:56;;;;;;;;;;;;;;;-0.90;75.61;101876.98;1831126;77;20190;-39
2020/12/01 13:36:24;;;;;;;;;;;;;;;-0.91;75.47;101880.77;1803162;78;20288;-40
2020/12/01 13:38:52;;;;;;;;;;;;;;;-0.91;75.30;101873.92;1831342;77;20176;-39
2020/12/01 13:41:20;;;;;;;;;;;;;;;-0.87;74.85;101886.56;1832384;77;20521;-38
2020/12/01 13:43:48;;;;;;;;;;;;;;;-0.84;74.62;101873.82;1831411;77;20266;-42
2020/12/01 13:46:16;;;;;;;;;;;;;;;-0.83;74.38;101872.61;1828679;77;20184;-41
2020/12/01 13:48:44;;;;;;;;;;;;;;;-0.83;74.15;101873.90;1814704;77;20277;-39
2020/12/01 13:51:12;;;;;;;;;;;;;;;-0.83;73.99;101879.05;1814578;78;20129;-37
2020/12/01 13:53:39;;;;;;;;;;;;;;;-0.83;73.93;101882.91;1830233;77;20160;-39
2020/12/01 13:56:07;;;;;;;;;;;;;;;-0.83;73.96;101875.19;1807712;77;20195;-40
2020/12/01 13:58:36;;;;;;;;;;;;;;;-0.85;74.07;101884.92;1810535;78;20165;-40